Time;durP1;ratioP1;P1;durP2;ratioP2;P2;SDS_P1;SDS_P2;PMS_P1;PMS_P2;Temp;Humidity;BMP_temperature;BMP_pressure;BME280_temperature;BME280_humidity;BME280_pressure;Samples;Min_cycle;Max_cycle;Signal;HPM_P1;HPM_P2
2022/02/14 00:02:18;;;;;;;4.78;3.28;;;;;;;21.62;34.02;99936.56;5035796;28;20538;-63
2022/02/14 00:04:45;;;;;;;5.05;3.50;;;;;;;21.60;33.95;99930.66;5030282;28;20048;-62
2022/02/14 00:07:10;;;;;;;4.68;3.30;;;;;;;21.56;33.78;99916.22;5033110;28;20082;-62
2022/02/14 00:09:36;;;;;;;5.95;3.63;;;;;;;21.53;34.00;99921.13;5031303;28;20910;-62
2022/02/14 00:12:02;;;;;;;5.20;3.13;;;;;;;21.48;34.09;99915.66;5034531;28;20338;-62
2022/02/14 00:14:27;;;;;;;4.60;3.25;;;;;;;21.47;34.25;99914.03;5034443;28;20119;-62
2022/02/14 00:16:57;;;;;;;6.18;3.20;;;;;;;21.45;34.13;99921.38;5031747;28;20056;-62
2022/02/14 00:19:22;;;;;;;5.97;3.30;;;;;;;21.45;34.25;99916.09;5030163;28;20118;-63
2022/02/14 00:21:49;;;;;;;4.72;3.10;;;;;;;21.40;34.10;99914.06;5032828;28;20049;-62
2022/02/14 00:24:15;;;;;;;4.68;3.42;;;;;;;21.35;34.38;99913.88;5032396;28;20060;-63
2022/02/14 00:26:40;;;;;;;5.63;3.17;;;;;;;21.37;34.03;99910.03;5034218;28;20056;-63
2022/02/14 00:29:06;;;;;;;5.40;3.22;;;;;;;21.32;34.42;99895.78;5029274;28;20052;-63
2022/02/14 00:31:32;;;;;;;4.88;3.50;;;;;;;21.28;34.33;99898.03;5033065;28;20437;-62
2022/02/14 00:33:57;;;;;;;5.07;2.97;;;;;;;21.29;34.40;99898.84;5031081;28;20059;-62
2022/02/14 00:36:23;;;;;;;4.22;3.08;;;;;;;21.26;34.15;99900.09;5035872;28;20045;-63
2022/02/14 00:38:50;;;;;;;5.88;3.42;;;;;;;21.25;34.22;99892.34;5031060;28;20111;-62
2022/02/14 00:41:16;;;;;;;4.45;3.28;;;;;;;21.21;34.41;99894.59;5035478;28;20049;-63
2022/02/14 00:43:42;;;;;;;4.80;3.25;;;;;;;21.15;34.33;99884.00;5027325;28;20115;-63
2022/02/14 00:46:07;;;;;;;4.90;3.20;;;;;;;21.16;34.38;99899.69;5037926;28;20030;-63
2022/02/14 00:48:33;;;;;;;4.10;2.95;;;;;;;21.12;34.34;99888.72;5030729;28;20045;-63
2022/02/14 00:50:58;;;;;;;5.15;3.45;;;;;;;21.11;34.36;99886.28;5035244;28;20037;-62
2022/02/14 00:53:24;;;;;;;4.95;3.45;;;;;;;21.08;34.37;99882.22;5032093;28;20037;-63
2022/02/14 00:55:50;;;;;;;5.28;3.58;;;;;;;21.04;34.46;99870.44;5031846;28;20049;-66
2022/02/14 00:58:16;;;;;;;5.13;3.65;;;;;;;21.02;34.40;99887.53;5008653;28;20029;-62
2022/02/14 01:00:42;;;;;;;4.85;3.28;;;;;;;21.03;34.39;99881.22;5030565;28;20458;-63
2022/02/14 01:03:07;;;;;;;5.70;3.30;;;;;;;20.99;34.43;99864.94;5028904;28;20036;-63
2022/02/14 01:05:33;;;;;;;4.95;3.17;;;;;;;21.00;34.48;99869.19;5063580;28;20041;-63
2022/02/14 01:07:59;;;;;;;6.35;3.15;;;;;;;21.00;34.35;99871.84;5029896;28;20048;-63
2022/02/14 01:10:25;;;;;;;3.78;3.20;;;;;;;20.92;34.61;99850.13;5032296;28;20563;-62
2022/02/14 01:12:50;;;;;;;5.18;3.28;;;;;;;20.83;34.62;99838.16;5032488;28;20148;-63
2022/02/14 01:15:16;;;;;;;5.70;3.28;;;;;;;20.88;34.62;99841.78;5032416;28;20444;-63
2022/02/14 01:17:41;;;;;;;6.38;3.30;;;;;;;20.83;34.70;99838.97;5030442;28;20667;-63
2022/02/14 01:20:09;;;;;;;4.13;3.00;;;;;;;20.85;34.63;99841.41;5030845;28;20033;-62
2022/02/14 01:22:35;;;;;;;7.53;3.40;;;;;;;20.81;34.67;99831.22;5030138;28;20430;-63
2022/02/14 01:25:02;;;;;;;5.30;3.28;;;;;;;20.79;34.72;99827.97;5031457;28;20041;-62
2022/02/14 01:27:27;;;;;;;3.70;2.85;;;;;;;20.80;34.58;99828.78;5033400;28;20036;-63
2022/02/14 01:29:53;;;;;;;5.65;3.22;;;;;;;20.77;34.63;99830.03;5030606;28;20048;-62
2022/02/14 01:32:22;;;;;;;4.38;3.08;;;;;;;20.77;34.73;99823.91;5033013;28;20037;-62
2022/02/14 01:34:52;;;;;;;5.32;3.25;;;;;;;20.74;34.71;99819.88;5027210;28;20517;-62
2022/02/14 01:37:18;;;;;;;;;;;;;;;20.72;34.66;99821.09;5035694;28;20045;-62
2022/02/14 01:39:44;;;;;;;4.68;3.30;;;;;;;20.69;34.75;99813.59;5029494;28;19963;-62
2022/02/14 01:42:11;;;;;;;4.85;3.10;;;;;;;20.70;34.82;99812.56;5035982;28;20487;-63
2022/02/14 01:44:42;;;;;;;4.65;2.85;;;;;;;20.70;34.74;99808.09;5028984;28;20098;-63
2022/02/14 01:47:12;;;;;;;3.70;2.85;;;;;;;20.65;34.76;99796.50;5034332;28;20533;-63
2022/02/14 01:49:39;;;;;;;4.22;3.00;;;;;;;20.66;34.76;99791.00;5025993;28;20624;-61
2022/02/14 01:52:06;;;;;;;4.78;3.22;;;;;;;20.64;34.96;99786.91;5041202;28;20050;-61
2022/02/14 01:54:34;;;;;;;3.97;2.70;;;;;;;20.62;34.81;99787.13;5028246;28;21007;-61
2022/02/14 01:57:00;;;;;;;5.90;2.90;;;;;;;20.62;34.75;99788.97;5035220;28;20101;-61
2022/02/14 01:59:26;;;;;;;3.85;2.75;;;;;;;20.57;34.71;99773.75;5025544;28;20029;-61
2022/02/14 02:01:51;;;;;;;4.85;3.15;;;;;;;20.58;34.85;99778.00;5035411;28;20123;-64
2022/02/14 02:04:17;;;;;;;4.05;3.03;;;;;;;20.58;34.80;99772.72;5030046;28;20791;-61
2022/02/14 02:06:43;;;;;;;4.90;3.00;;;;;;;20.60;34.86;99769.84;5049555;28;20331;-61
2022/02/14 02:09:09;;;;;;;4.10;2.85;;;;;;;20.51;34.60;99764.81;5033270;28;20040;-63
2022/02/14 02:14:23;;;;;;;4.75;3.13;;;;;;;20.53;34.92;99761.97;5038504;28;20394;-63
2022/02/14 02:16:49;;;;;;;;;;;;;;;20.52;34.96;99761.16;5031925;28;20055;-63
2022/02/14 02:19:14;;;;;;;4.10;3.10;;;;;;;20.51;34.86;99759.53;5034650;28;19956;-63
2022/02/14 02:21:44;;;;;;;4.88;2.85;;;;;;;20.47;34.91;99747.75;5032517;28;20115;-63
2022/02/14 02:24:14;;;;;;;4.20;2.88;;;;;;;20.48;34.90;99735.34;5041221;28;20561;-63
2022/02/14 02:26:40;;;;;;;4.10;3.00;;;;;;;20.46;34.97;99735.53;5029990;28;20041;-63
2022/02/14 02:29:06;;;;;;;3.90;3.13;;;;;;;20.46;34.88;99737.34;5040359;28;20052;-63
2022/02/14 02:31:31;;;;;;;6.20;3.40;;;;;;;20.45;34.93;99728.63;5030956;28;20037;-63
2022/02/14 02:33:57;;;;;;;3.70;2.85;;;;;;;20.42;34.94;99722.94;5036009;28;20056;-63
2022/02/14 02:36:22;;;;;;;4.45;3.22;;;;;;;20.44;34.85;99719.06;5035544;28;20033;-63
2022/02/14 02:38:48;;;;;;;4.40;3.17;;;;;;;20.40;34.96;99714.38;5032596;28;20085;-63
2022/02/14 02:41:13;;;;;;;4.43;3.03;;;;;;;20.41;35.07;99710.75;5031912;28;20033;-63
2022/02/14 02:43:39;;;;;;;5.85;3.10;;;;;;;20.40;34.91;99711.72;5037010;28;20095;-63
2022/02/14 02:46:04;;;;;;;4.82;3.03;;;;;;;20.39;34.94;99712.75;5033518;28;20045;-63
2022/02/14 02:48:30;;;;;;;5.28;2.92;;;;;;;20.38;34.96;99693.44;5035848;28;20044;-63
2022/02/14 02:51:02;;;;;;;4.18;3.03;;;;;;;20.37;34.95;99707.69;5034046;28;20051;-62
2022/02/14 02:53:33;;;;;;;4.22;3.03;;;;;;;20.38;34.94;99695.28;5038010;28;20127;-62
2022/02/14 02:56:00;;;;;;;4.20;3.13;;;;;;;20.33;35.04;99692.47;5031557;28;20636;-63
2022/02/14 02:58:26;;;;;;;5.22;2.95;;;;;;;20.29;35.07;99689.44;5040236;28;20032;-63
2022/02/14 03:00:52;;;;;;;4.60;2.85;;;;;;;20.32;34.88;99683.72;5030619;28;20552;-63
2022/02/14 03:03:17;;;;;;;5.85;2.97;;;;;;;20.34;34.98;99686.16;5035496;28;20548;-63
2022/02/14 03:05:43;;;;;;;4.13;2.90;;;;;;;20.31;35.09;99676.00;5030007;28;20037;-62
2022/02/14 03:08:09;;;;;;;4.27;2.83;;;;;;;20.29;35.09;99662.16;5035395;28;20041;-62
2022/02/14 03:10:34;;;;;;;4.72;2.88;;;;;;;20.28;35.13;99669.25;5031206;28;20089;-62
2022/02/14 03:13:00;;;;;;;5.20;2.90;;;;;;;20.29;35.01;99659.50;5030915;28;20033;-63
2022/02/14 03:15:26;;;;;;;4.55;3.08;;;;;;;20.29;35.03;99651.56;5035977;28;20037;-63
2022/02/14 03:17:52;;;;;;;4.85;2.90;;;;;;;20.26;35.02;99652.81;5028810;28;20048;-62
2022/02/14 03:20:17;;;;;;;5.40;2.92;;;;;;;20.22;35.05;99641.84;5036482;28;20311;-63
2022/02/14 03:22:43;;;;;;;4.15;2.60;;;;;;;20.23;35.11;99647.94;5028519;28;21676;-63
2022/02/14 03:25:09;;;;;;;4.78;3.35;;;;;;;20.19;35.13;99633.53;5039406;28;20041;-63
2022/02/14 03:27:34;;;;;;;5.75;2.90;;;;;;;20.21;35.13;99637.59;5028801;28;20040;-63
2022/02/14 03:30:00;;;;;;;3.80;2.67;;;;;;;20.19;35.11;99642.28;5037480;28;20045;-63
2022/02/14 03:32:26;;;;;;;4.60;2.92;;;;;;;20.20;35.08;99629.88;5029303;28;20053;-63
2022/02/14 03:34:52;;;;;;;5.50;2.90;;;;;;;20.22;35.11;99633.13;5032358;28;20485;-62
2022/02/14 03:37:17;;;;;;;4.10;2.88;;;;;;;20.20;35.05;99622.75;5031647;28;20037;-63
2022/02/14 03:39:43;;;;;;;4.45;2.92;;;;;;;20.19;35.14;99607.09;5037365;28;20029;-63
2022/02/14 03:42:09;;;;;;;3.47;2.72;;;;;;;20.20;34.97;99616.66;5031546;28;20059;-63
2022/02/14 03:44:34;;;;;;;6.93;2.95;;;;;;;20.16;35.17;99615.47;5033008;28;20110;-62
2022/02/14 03:47:00;;;;;;;4.93;3.00;;;;;;;20.11;35.17;99605.53;5035407;28;20044;-63
2022/02/14 03:49:26;;;;;;;5.22;3.10;;;;;;;20.18;35.03;99608.13;5032099;28;20037;-62
2022/02/14 03:51:51;;;;;;;3.88;2.95;;;;;;;20.14;35.17;99606.94;5032636;28;20064;-62
2022/02/14 03:54:17;;;;;;;4.70;3.17;;;;;;;20.13;35.24;99605.31;5036379;28;20040;-63
2022/02/14 03:56:43;;;;;;;3.42;2.85;;;;;;;20.12;35.21;99607.16;5031044;28;20041;-63
2022/02/14 03:59:08;;;;;;;4.15;2.90;;;;;;;20.10;35.30;99606.53;5035329;28;20021;-62
2022/02/14 04:01:34;;;;;;;4.50;2.85;;;;;;;20.08;35.06;99584.78;5029789;28;20804;-63
2022/02/14 04:03:59;;;;;;;4.28;2.80;;;;;;;20.12;35.18;99598.41;5037021;28;20513;-62
2022/02/14 04:06:25;;;;;;;4.65;2.78;;;;;;;20.08;35.27;99603.28;5033400;28;20967;-63
2022/02/14 04:08:50;;;;;;;4.95;3.00;;;;;;;20.09;35.23;99596.16;5034926;28;20565;-63
2022/02/14 04:11:16;;;;;;;4.53;2.60;;;;;;;20.02;35.20;99595.41;5028430;28;20639;-62
2022/02/14 04:13:42;;;;;;;3.72;2.72;;;;;;;20.06;35.20;99593.94;5033602;28;20445;-63
2022/02/14 04:16:07;;;;;;;4.07;2.72;;;;;;;20.06;35.17;99589.47;5034775;28;20040;-62
2022/02/14 04:18:33;;;;;;;6.25;3.13;;;;;;;20.07;35.22;99595.56;5034276;28;20110;-62
2022/02/14 04:20:58;;;;;;;4.35;2.67;;;;;;;20.07;35.24;99593.72;5037658;28;20087;-63
2022/02/14 04:23:24;;;;;;;4.50;2.80;;;;;;;20.05;35.22;99597.63;5036086;28;20084;-62
2022/02/14 04:25:49;;;;;;;4.15;3.28;;;;;;;20.02;35.17;99590.09;5035408;28;20041;-63
2022/02/14 04:28:15;;;;;;;5.07;2.90;;;;;;;20.03;35.24;99589.91;5029823;28;20037;-62
2022/02/14 04:30:40;;;;;;;3.35;2.85;;;;;;;20.01;35.14;99585.84;5035165;28;20441;-62
2022/02/14 04:33:06;;;;;;;5.32;2.88;;;;;;;20.01;35.22;99591.94;5030498;28;20049;-63
2022/02/14 04:35:32;;;;;;;4.85;3.00;;;;;;;20.00;35.30;99598.25;5035718;28;20030;-62
2022/02/14 04:38:00;;;;;;;4.38;2.75;;;;;;;19.99;35.36;99591.34;5033125;28;20775;-62
2022/02/14 04:40:31;;;;;;;5.68;3.00;;;;;;;19.99;35.28;99575.50;5031767;28;20056;-62
2022/02/14 04:42:58;;;;;;;3.67;2.65;;;;;;;19.99;35.32;99586.06;5032390;28;20142;-63
2022/02/14 04:45:25;;;;;;;4.38;2.80;;;;;;;19.98;35.27;99578.34;5036237;28;20033;-63
2022/02/14 04:47:51;;;;;;;4.80;2.70;;;;;;;19.98;35.34;99584.44;5034843;28;20057;-63
2022/02/14 04:50:17;;;;;;;3.95;2.97;;;;;;;19.97;35.30;99582.00;5031157;28;20546;-62
2022/02/14 04:52:42;;;;;;;3.70;2.65;;;;;;;19.94;35.40;99577.97;5033681;28;20029;-63
2022/02/14 04:55:08;;;;;;;4.80;2.80;;;;;;;19.94;35.31;99571.88;5035010;28;20037;-63
2022/02/14 04:57:35;;;;;;;4.53;2.75;;;;;;;19.96;35.27;99562.72;5031706;28;20044;-61
2022/02/14 05:00:04;;;;;;;3.70;2.80;;;;;;;19.92;35.34;99564.13;5034875;28;20060;-61
2022/02/14 05:02:29;;;;;;;4.38;2.65;;;;;;;19.92;35.36;99569.41;5029476;28;20494;-61
2022/02/14 05:04:55;;;;;;;4.13;2.50;;;;;;;19.92;35.20;99577.34;5036286;28;20044;-61
2022/02/14 05:07:20;;;;;;;4.35;2.67;;;;;;;19.91;35.26;99557.22;5032354;28;20052;-61
2022/02/14 05:09:46;;;;;;;5.07;2.80;;;;;;;19.90;35.35;99563.53;5034554;28;20032;-61
2022/02/14 05:12:11;;;;;;;3.85;2.67;;;;;;;19.91;35.40;99559.88;5034337;28;20045;-63
2022/02/14 05:14:37;;;;;;;4.65;2.90;;;;;;;19.94;35.61;99564.75;5032376;28;20083;-63
2022/02/14 05:17:03;;;;;;;3.53;2.88;;;;;;;19.93;35.24;99565.78;5034399;28;21169;-63
2022/02/14 05:19:29;;;;;;;3.40;2.50;;;;;;;19.93;35.35;99563.13;5033105;28;20540;-63
2022/02/14 05:21:54;;;;;;;4.05;2.80;;;;;;;19.95;35.32;99569.03;5033686;28;20044;-63
2022/02/14 05:24:20;;;;;;;5.32;2.58;;;;;;;19.91;35.36;99554.59;5030655;28;20048;-63
2022/02/14 05:26:45;;;;;;;6.22;2.63;;;;;;;19.92;35.37;99561.47;5035990;28;20041;-63
2022/02/14 05:29:11;;;;;;;4.50;3.00;;;;;;;19.92;35.41;99564.94;5029111;28;20044;-64
2022/02/14 05:31:36;;;;;;;3.28;2.60;;;;;;;19.91;35.43;99563.31;5036074;28;20094;-63
2022/02/14 05:34:02;;;;;;;3.63;2.80;;;;;;;19.93;35.36;99557.84;5031820;28;20506;-63
2022/02/14 05:36:28;;;;;;;5.13;3.10;;;;;;;19.88;35.60;99547.88;5035268;28;20060;-62
2022/02/14 05:38:53;;;;;;;4.47;3.03;;;;;;;19.88;35.37;99547.88;5029015;28;20052;-63
2022/02/14 05:41:21;;;;;;;3.72;2.67;;;;;;;19.91;35.57;99571.25;5026952;28;20040;-63
2022/02/14 05:43:47;;;;;;;3.38;2.60;;;;;;;19.90;35.59;99553.78;5029641;28;20029;-63
2022/02/14 05:46:13;;;;;;;2.97;2.47;;;;;;;19.90;35.57;99552.97;5063614;28;20067;-62
2022/02/14 05:48:45;;;;;;;4.53;2.50;;;;;;;19.93;35.61;99544.63;5034225;28;20061;-63
2022/02/14 05:51:12;;;;;;;3.88;2.70;;;;;;;19.92;35.54;99553.56;5030876;28;20045;-62
2022/02/14 05:53:39;;;;;;;4.18;3.05;;;;;;;19.92;35.55;99553.56;5031904;28;21243;-63
2022/02/14 05:56:06;;;;;;;4.97;3.03;;;;;;;19.96;35.19;99552.13;5032688;28;20467;-63
2022/02/14 05:58:33;;;;;;;3.20;2.25;;;;;;;20.12;35.29;99556.13;5031933;28;20033;-62
2022/02/14 06:00:58;;;;;;;3.90;2.78;;;;;;;20.43;34.93;99553.50;5033053;28;20041;-63
2022/02/14 06:03:24;;;;;;;3.70;2.65;;;;;;;20.46;35.01;99544.31;5029650;28;20871;-63
2022/02/14 06:05:49;;;;;;;3.20;2.63;;;;;;;20.66;34.86;99560.88;5033797;28;22121;-63
2022/02/14 06:08:15;;;;;;;4.30;2.60;;;;;;;20.74;34.80;99551.84;5026502;28;20041;-64
2022/02/14 06:10:40;;;;;;;3.53;2.60;;;;;;;20.85;34.84;99555.63;5037199;28;20045;-62
2022/02/14 06:13:06;;;;;;;4.65;2.63;;;;;;;20.97;34.51;99557.34;5030731;28;20045;-63
2022/02/14 06:15:31;;;;;;;3.20;2.35;;;;;;;21.08;34.50;99555.81;5029175;28;20609;-63
2022/02/14 06:17:57;;;;;;;3.35;2.35;;;;;;;21.09;34.56;99558.25;5031961;28;20061;-63
2022/02/14 06:20:22;;;;;;;3.50;2.60;;;;;;;21.08;34.59;99554.00;5032653;28;20033;-63
2022/02/14 06:22:48;;;;;;;2.88;2.55;;;;;;;21.01;34.70;99558.53;5034271;28;20111;-62
2022/02/14 06:25:14;;;;;;;2.80;2.25;;;;;;;20.94;34.84;99549.03;5030006;28;20517;-62
2022/02/14 06:27:39;;;;;;;3.80;2.45;;;;;;;20.98;34.70;99556.31;5033943;28;20179;-63
2022/02/14 06:30:05;;;;;;;3.88;2.40;;;;;;;21.08;34.74;99555.81;5028827;28;20040;-63
2022/02/14 06:32:32;;;;;;;3.00;2.20;;;;;;;21.22;34.53;99556.50;5030863;28;20055;-62
2022/02/14 06:34:58;;;;;;;3.58;2.40;;;;;;;21.42;34.52;99555.31;5027409;28;20119;-63
2022/02/14 06:37:23;;;;;;;3.47;2.40;;;;;;;21.60;34.21;99554.50;5032108;28;20040;-62
2022/02/14 06:39:50;;;;;;;6.15;2.53;;;;;;;21.57;34.07;99564.72;5030308;28;20037;-62
2022/02/14 06:42:16;;;;;;;3.03;2.17;;;;;;;21.62;34.23;99547.13;5034393;28;20041;-63
2022/02/14 06:44:42;;;;;;;3.67;2.67;;;;;;;21.55;34.06;99550.91;5029153;28;20208;-63
2022/02/14 06:47:08;;;;;;;7.88;2.40;;;;;;;21.47;34.68;99559.94;5031370;28;20372;-63
2022/02/14 06:49:33;;;;;;;3.35;2.20;;;;;;;21.47;34.28;99551.97;5029411;28;20029;-63
2022/02/14 06:51:59;;;;;;;4.05;2.10;;;;;;;21.54;34.12;99557.19;5032190;28;20124;-62
2022/02/14 06:54:25;;;;;;;3.65;2.30;;;;;;;21.51;34.02;99544.41;5032596;28;20057;-62
2022/02/14 06:56:50;;;;;;;3.75;2.40;;;;;;;21.56;34.19;99569.22;5035878;28;20043;-63
2022/02/14 06:59:19;;;;;;;4.45;2.90;;;;;;;21.52;33.98;99560.06;5033408;28;20033;-63
2022/02/14 07:01:45;;;;;;;2.58;2.30;;;;;;;21.49;34.10;99565.00;5034488;28;20505;-63
2022/02/14 07:04:10;;;;;;;4.97;2.38;;;;;;;21.46;34.38;99576.03;5034981;28;20040;-62
2022/02/14 07:06:36;;;;;;;2.10;1.90;;;;;;;21.39;34.49;99562.88;5032683;28;21790;-63
2022/02/14 07:09:03;;;;;;;3.55;2.40;;;;;;;21.33;34.46;99563.75;5033869;28;20049;-63
2022/02/14 07:11:28;;;;;;;3.20;2.42;;;;;;;21.28;34.40;99558.31;5034418;28;20542;-62
2022/02/14 07:13:54;;;;;;;3.55;2.42;;;;;;;21.28;34.41;99560.94;5035559;28;20036;-63
2022/02/14 07:16:19;;;;;;;5.45;2.33;;;;;;;21.31;34.53;99560.50;5029031;28;20033;-63
2022/02/14 07:18:45;;;;;;;3.75;2.70;;;;;;;21.50;34.47;99567.44;5036642;28;20049;-63
2022/02/14 07:21:11;;;;;;;3.45;2.13;;;;;;;21.55;34.23;99561.50;5033719;28;20042;-62
2022/02/14 07:23:36;;;;;;;3.40;2.55;;;;;;;21.67;34.18;99557.84;5037488;28;20041;-62
2022/02/14 07:26:02;;;;;;;3.22;2.30;;;;;;;21.69;34.07;99554.97;5034141;28;20033;-60
2022/02/14 07:28:27;;;;;;;2.55;2.35;;;;;;;21.66;34.13;99561.53;5039207;28;20534;-60
2022/02/14 07:30:53;;;;;;;3.05;2.20;;;;;;;21.69;34.16;99562.94;5034059;28;20048;-60
2022/02/14 07:33:20;;;;;;;3.08;2.25;;;;;;;21.75;33.98;99556.75;5035433;28;20631;-63
2022/02/14 07:35:46;;;;;;;4.68;2.60;;;;;;;21.81;33.79;99571.75;5029295;28;20582;-62
2022/02/14 07:38:12;;;;;;;2.60;1.88;;;;;;;21.74;34.08;99565.75;5036254;28;20051;-63
2022/02/14 07:40:37;;;;;;;2.50;2.00;;;;;;;21.75;34.20;99567.38;5030075;28;20676;-63
2022/02/14 07:43:03;;;;;;;2.90;2.03;;;;;;;21.71;34.07;99561.69;5035335;28;20127;-63
2022/02/14 07:45:28;;;;;;;2.67;1.90;;;;;;;21.69;33.92;99554.97;5031631;28;20048;-62
2022/02/14 07:47:54;;;;;;;3.60;2.17;;;;;;;21.63;34.29;99569.94;5032884;28;20473;-62
2022/02/14 07:50:23;;;;;;;2.80;2.15;;;;;;;21.56;34.38;99569.22;5028502;28;20042;-62
2022/02/14 07:52:49;;;;;;;2.97;2.00;;;;;;;21.43;34.35;99569.34;5027152;28;20045;-63
2022/02/14 07:55:15;;;;;;;3.55;2.20;;;;;;;21.44;34.50;99568.31;5022133;28;21246;-63
2022/02/14 07:57:42;;;;;;;4.05;2.35;;;;;;;21.40;34.67;99581.19;5030878;28;20072;-62
2022/02/14 08:00:08;;;;;;;2.92;2.15;;;;;;;21.39;34.62;99570.81;5027183;28;20450;-63
2022/02/14 08:02:40;;;;;;;3.05;2.22;;;;;;;21.37;34.66;99565.75;5033283;28;20064;-62
2022/02/14 08:05:06;;;;;;;3.03;2.45;;;;;;;21.31;34.63;99563.16;5029782;28;20112;-63
2022/02/14 08:07:33;;;;;;;3.25;2.35;;;;;;;21.32;34.72;99572.72;5030957;28;20398;-63
2022/02/14 08:09:58;;;;;;;2.53;2.00;;;;;;;21.28;34.62;99582.13;5031093;28;20048;-62
2022/02/14 08:12:24;;;;;;;3.20;1.95;;;;;;;21.24;34.69;99567.69;5031853;28;20041;-63
2022/02/14 08:14:52;;;;;;;4.35;2.42;;;;;;;21.27;34.60;99568.09;5028675;28;20218;-62
2022/02/14 08:17:17;;;;;;;2.58;1.90;;;;;;;21.31;34.45;99581.69;5028503;28;20675;-62
2022/02/14 08:19:43;;;;;;;3.05;2.30;;;;;;;21.34;34.39;99578.59;5034418;28;20033;-62
2022/02/14 08:22:09;;;;;;;3.15;2.28;;;;;;;21.32;34.57;99575.38;5027074;28;20037;-63
2022/02/14 08:24:35;;;;;;;2.85;2.25;;;;;;;21.30;34.62;99575.59;5035107;28;20051;-62
2022/02/14 08:27:03;;;;;;;2.90;2.33;;;;;;;21.30;34.61;99583.53;5027681;28;20116;-62
2022/02/14 08:29:29;;;;;;;2.92;2.20;;;;;;;21.29;34.66;99573.97;5037755;28;20480;-63
2022/02/14 08:31:55;;;;;;;3.03;2.20;;;;;;;21.19;34.50;99555.13;5027115;28;20751;-63
2022/02/14 08:34:21;;;;;;;3.50;2.28;;;;;;;21.25;34.36;99572.78;5036730;28;20033;-62
2022/02/14 08:36:48;;;;;;;3.42;2.42;;;;;;;21.29;34.36;99584.56;5026953;28;20043;-62
2022/02/14 08:39:14;;;;;;;3.22;2.30;;;;;;;21.41;34.16;99588.13;5035271;28;20434;-62
2022/02/14 08:41:41;;;;;;;3.65;2.10;;;;;;;21.59;33.85;99594.44;5027403;28;20052;-62
2022/02/14 08:44:07;;;;;;;3.30;2.08;;;;;;;21.71;33.77;99585.53;5033826;28;20044;-62
2022/02/14 08:46:33;;;;;;;3.70;2.33;;;;;;;21.67;34.14;99596.78;5030004;28;20034;-62
2022/02/14 08:49:00;;;;;;;3.15;2.17;;;;;;;21.76;34.40;99598.13;5034704;28;20052;-61
2022/02/14 08:51:26;;;;;;;2.92;2.08;;;;;;;21.75;34.32;99604.47;5028448;28;20036;-61
2022/02/14 08:53:51;;;;;;;3.22;2.10;;;;;;;21.66;34.24;99609.22;5029584;28;20041;-61
2022/02/14 08:56:17;;;;;;;3.40;2.53;;;;;;;21.64;34.11;99607.84;5030520;28;20048;-61
2022/02/14 08:58:45;;;;;;;2.38;1.90;;;;;;;21.59;34.26;99610.34;5034060;28;20037;-60
2022/02/14 09:01:11;;;;;;;3.10;2.05;;;;;;;21.53;34.31;99609.38;5023564;28;21409;-61
2022/02/14 09:03:39;;;;;;;2.85;2.15;;;;;;;21.59;34.40;99616.44;5033172;28;20139;-63
2022/02/14 09:06:06;;;;;;;3.28;2.03;;;;;;;21.58;34.35;99606.88;5032891;28;20029;-64
2022/02/14 09:08:31;;;;;;;4.00;2.13;;;;;;;21.75;34.14;99646.84;5049420;28;20491;-63
2022/02/14 09:10:59;;;;;;;2.90;1.90;;;;;;;21.68;34.24;99649.56;5030167;28;20068;-63
2022/02/14 09:13:26;;;;;;;4.45;2.00;;;;;;;21.67;34.26;99649.78;5034755;28;20037;-63
2022/02/14 09:15:51;;;;;;;4.93;1.90;;;;;;;21.60;34.50;99662.28;5033233;28;20052;-63
2022/02/14 09:18:17;;;;;;;3.70;2.30;;;;;;;21.56;34.55;99651.34;5030843;28;20053;-63
2022/02/14 09:20:42;;;;;;;2.28;1.80;;;;;;;21.54;34.64;99665.78;5042890;28;20114;-64
2022/02/14 09:23:08;;;;;;;2.92;2.00;;;;;;;21.51;34.56;99672.34;5031494;28;20687;-61
2022/02/14 09:25:34;;;;;;;3.50;1.90;;;;;;;21.68;34.20;99691.13;5038537;28;20052;-63
2022/02/14 09:28:01;;;;;;;2.42;2.10;;;;;;;21.77;34.17;99712.88;5030749;28;20614;-61
2022/02/14 09:30:26;;;;;;;2.35;1.95;;;;;;;21.81;34.34;99719.34;5039711;28;20047;-61
2022/02/14 09:32:52;;;;;;;3.97;2.20;;;;;;;21.84;34.23;99713.59;5032481;28;20033;-61
2022/02/14 09:35:26;;;;;;;3.78;1.98;;;;;;;21.80;34.11;99717.72;5036913;28;20737;-61
2022/02/14 09:38:01;;;;;;;2.47;2.00;;;;;;;21.70;34.39;99726.97;5030745;28;20695;-61
2022/02/14 09:40:28;;;;;;;2.70;2.00;;;;;;;21.67;34.31;99719.47;5036618;28;20479;-61
2022/02/14 09:42:56;;;;;;;2.60;2.03;;;;;;;21.64;34.49;99713.81;5027293;28;20517;-61
2022/02/14 09:45:23;;;;;;;2.35;1.85;;;;;;;21.73;34.41;99724.94;5038649;28;20040;-61
2022/02/14 09:48:00;;;;;;;2.92;1.92;;;;;;;21.72;34.22;99716.16;5030517;28;20065;-61
2022/02/14 09:50:27;;;;;;;3.30;2.10;;;;;;;21.76;34.39;99730.63;5033933;28;20032;-61
2022/02/14 09:52:53;;;;;;;2.75;1.90;;;;;;;21.71;34.60;99735.75;5035337;28;20483;-60
2022/02/14 09:55:19;;;;;;;3.50;2.45;;;;;;;21.60;34.56;99729.34;5032737;28;20058;-61
2022/02/14 09:57:46;;;;;;;2.88;1.83;;;;;;;21.52;35.03;99737.53;5030356;28;20069;-61
2022/02/14 10:00:12;;;;;;;2.03;1.83;;;;;;;21.65;35.08;99749.88;5031975;28;20035;-63
2022/02/14 10:02:37;;;;;;;2.72;1.88;;;;;;;21.76;34.43;99749.16;5031012;28;20521;-61
2022/02/14 10:05:06;;;;;;;2.90;2.03;;;;;;;21.81;34.66;99753.81;5030332;28;20037;-64
2022/02/14 10:08:02;;;;;;;4.10;2.22;;;;;;;21.87;34.37;99753.72;5034077;28;20045;-61
2022/02/14 10:10:29;;;;;;;2.67;2.03;;;;;;;21.83;34.73;99755.19;5020020;28;20053;-61
2022/02/14 10:12:59;;;;;;;2.17;1.73;;;;;;;21.79;34.84;99761.97;5033956;28;20049;-61
2022/02/14 10:15:26;;;;;;;3.17;1.80;;;;;;;21.74;34.84;99764.47;5033292;28;20029;-62
2022/02/14 10:18:00;;;;;;;4.10;2.22;;;;;;;21.69;34.94;99769.59;5027749;28;20041;-61
2022/02/14 10:20:28;;;;;;;2.65;1.85;;;;;;;21.68;34.70;99773.28;5029159;28;20779;-61
2022/02/14 10:23:06;;;;;;;2.63;2.00;;;;;;;21.68;34.73;99776.72;5035198;28;20033;-61
2022/02/14 10:25:36;;;;;;;2.20;1.80;;;;;;;21.60;34.84;99774.38;5048987;28;20045;-61
2022/02/14 10:28:19;;;;;;;;;;;;;;;21.74;34.76;99783.03;5035437;28;20048;-61
2022/02/14 10:30:53;;;;;;;2.53;1.70;;;;;;;21.77;34.58;99797.66;5036690;28;19928;-61
2022/02/14 10:33:19;;;;;;;3.17;1.73;;;;;;;21.72;34.68;99793.00;5037814;28;20037;-61
2022/02/14 10:35:47;;;;;;;3.25;2.25;;;;;;;21.68;34.79;99789.16;5040606;28;20036;-62
2022/02/14 10:38:13;;;;;;;3.75;1.70;;;;;;;21.67;34.84;99792.84;5034346;28;20336;-64
2022/02/14 10:40:40;;;;;;;2.00;1.80;;;;;;;21.60;34.91;99798.22;5037934;28;20040;-61
2022/02/14 10:43:07;;;;;;;3.15;2.00;;;;;;;21.55;35.09;99795.41;5036135;28;20132;-61
2022/02/14 10:45:34;;;;;;;2.15;1.75;;;;;;;21.59;34.92;99788.63;5033483;28;20044;-61
2022/02/14 10:48:04;;;;;;;3.20;1.88;;;;;;;21.60;34.81;99800.84;5039707;28;20116;-61
2022/02/14 10:50:29;;;;;;;2.10;1.90;;;;;;;21.63;34.72;99800.41;5035952;28;20056;-61
2022/02/14 10:53:01;;;;;;;3.30;1.92;;;;;;;21.59;34.89;99811.66;5028532;28;20072;-61
2022/02/14 10:55:34;;;;;;;3.08;2.05;;;;;;;21.52;35.06;99809.06;5035389;28;20060;-61
2022/02/14 10:58:01;;;;;;;2.47;1.90;;;;;;;21.49;34.96;99814.78;5038634;28;20029;-61
2022/02/14 11:00:31;;;;;;;2.95;2.00;;;;;;;21.46;35.15;99809.91;5035655;28;20037;-61
2022/02/14 11:02:58;;;;;;;2.58;1.98;;;;;;;21.50;35.23;99818.25;5036721;28;20040;-61
2022/02/14 11:05:28;;;;;;;1.95;1.75;;;;;;;21.49;35.27;99814.78;5035508;28;20040;-61
2022/02/14 11:07:55;;;;;;;3.05;1.70;;;;;;;21.40;35.43;99801.00;5000192;28;20657;-61
2022/02/14 11:10:21;;;;;;;2.75;1.77;;;;;;;21.48;35.37;99813.16;5036602;28;20029;-61
2022/02/14 11:12:58;;;;;;;2.53;1.60;;;;;;;21.51;35.33;99818.03;5038774;28;20068;-61
2022/02/14 11:15:25;;;;;;;2.30;1.88;;;;;;;21.52;35.15;99816.19;5032994;28;20116;-61
2022/02/14 11:18:11;;;;;;;2.05;1.55;;;;;;;21.51;35.28;99806.63;5034757;28;20605;-61
2022/02/14 11:20:38;;;;;;;1.88;1.60;;;;;;;21.57;35.31;99811.88;5031433;28;20044;-61
2022/02/14 11:23:06;;;;;;;3.83;1.77;;;;;;;21.56;35.05;99802.31;5006661;28;20512;-61
2022/02/14 11:25:31;;;;;;;2.38;1.60;;;;;;;21.61;35.24;99804.31;5006312;28;20130;-61
2022/02/14 11:28:30;;;;;;;3.47;1.88;;;;;;;21.59;35.06;99801.88;5039621;28;20581;-61
2022/02/14 11:31:13;;;;;;;2.08;1.88;;;;;;;21.61;35.16;99804.31;4981016;28;20091;-61
2022/02/14 11:33:50;;;;;;;2.05;1.50;;;;;;;21.59;35.18;99798.44;5027907;28;20048;-62
2022/02/14 11:36:17;;;;;;;2.22;1.65;;;;;;;21.59;35.08;99809.84;5027185;28;20402;-61